| Date | Time | Temp. (oF) | Dew Point (oF) | Rel. Hum. (%) | Press. (in.) | Wind Dir. | Wind Speed (mph) | Hourly Rainfall (in.) |
|
|---|---|---|---|---|---|---|---|---|---|
| 1 | 08/27 | 00:00 | 70 | 65 | 85 | 30.06 | SSE | 0 | 0.00 |
| 2 | 08/26 | 23:00 | 70 | 64 | 82 | 30.08 | SSE | 0 | 0.00 |
| 3 | 08/26 | 22:00 | 71 | 63 | 77 | 30.07 | SSE | 1 | 0.00 |
| 4 | miss | miss | miss | miss | miss | miss | miss | miss | |
| 5 | 08/26 | 21:43 | 71 | 62 | 74 | 30.07 | SSE | 2 | 0.00 |
| 6 | miss | miss | miss | miss | miss | miss | miss | miss | |
| 7 | 08/26 | 21:41 | 71 | 62 | 74 | 30.07 | SSE | 1 | 0.00 |
| 8 | miss | miss | miss | miss | miss | miss | miss | miss | |
| 9 | 08/26 | 21:39 | 71 | 62 | 74 | 30.07 | SSE | 2 | 0.00 |
| 10 | miss | miss | miss | miss | miss | miss | miss | miss | |
| 11 | 08/26 | 21:37 | 72 | 63 | 74 | 30.07 | S | 2 | 0.00 |
| 12 | miss | miss | miss | miss | miss | miss | miss | miss | |
| 13 | 08/26 | 21:35 | 72 | 63 | 74 | 30.07 | S | 1 | 0.00 |
| 14 | miss | miss | miss | miss | miss | miss | miss | miss | |
| 15 | 08/26 | 21:33 | 72 | 63 | 74 | 30.07 | SSE | 1 | 0.00 |
| 16 | miss | miss | miss | miss | miss | miss | miss | miss | |
| 17 | 08/26 | 21:31 | 72 | 63 | 74 | 30.07 | SSE | 2 | 0.00 |
| 18 | miss | miss | miss | miss | miss | miss | miss | miss | |
| 19 | 08/26 | 21:29 | 72 | 63 | 74 | 30.07 | SSE | 1 | 0.00 |
| 20 | miss | miss | miss | miss | miss | miss | miss | miss | |
| 21 | 08/26 | 21:27 | 72 | 63 | 74 | 30.07 | SSE | 1 | 0.00 |
| 22 | miss | miss | miss | miss | miss | miss | miss | miss | |
| 23 | 08/26 | 21:25 | 72 | 63 | 74 | 30.07 | SSE | 1 | 0.00 |
| 24 | miss | miss | miss | miss | miss | miss | miss | miss | |
| 25 | 08/26 | 21:23 | 72 | 63 | 74 | 30.07 | SSE | 1 | 0.00 |
| 26 | miss | miss | miss | miss | miss | miss | miss | miss | |
| 27 | 08/26 | 21:23 | 72 | 63 | 74 | 30.07 | SSE | 1 | 0.00 |
| 28 | 08/26 | 21:00 | 72 | 62 | 72 | 30.07 | SSE | 0 | 0.00 |
| 29 | 08/26 | 20:00 | 74 | 62 | 68 | 30.06 | S | 2 | 0.00 |
| 30 | 08/26 | 19:00 | 76 | 60 | 58 | 30.05 | S | 4 | 0.00 |
| 31 | 08/26 | 18:00 | 79 | 60 | 54 | 30.05 | SSE | 4 | 0.00 |
| 32 | 08/26 | 17:00 | 80 | 61 | 54 | 30.05 | SSW | 5 | 0.00 |
| 33 | 08/26 | 16:00 | 81 | 62 | 54 | 30.07 | S | 12 | 0.00 |
| 34 | 08/26 | 15:00 | 79 | 63 | 59 | 30.09 | SSE | 4 | 0.00 |
| 35 | 08/26 | 14:00 | 79 | 61 | 55 | 30.11 | SSW | 4 | 0.00 |
| 36 | 08/26 | 13:00 | 78 | 62 | 60 | 30.12 | SSW | 4 | 0.00 |
| 37 | 08/26 | 12:00 | 76 | 62 | 64 | 30.13 | S | 8 | 0.00 |
| 38 | 08/26 | 11:00 | 74 | 63 | 71 | 30.14 | SSE | 3 | 0.00 |
| 39 | 08/26 | 10:00 | 69 | 68 | 97 | 30.16 | ENE | 1 | 0.00 |
| 40 | 08/26 | 09:00 | 65 | 64 | 100 | 30.16 | SSE | 0 | 0.00 |
| 41 | 08/26 | 08:00 | 62 | 62 | 100 | 30.17 | E | 0 | 0.00 |
| 42 | 08/26 | 07:00 | 60 | 59 | 100 | 30.17 | N | 1 | 0.00 |
| 43 | 08/26 | 06:00 | 61 | 60 | 98 | 30.18 | WNW | 0 | 0.00 |
| 44 | 08/26 | 05:00 | 61 | 59 | 96 | 30.17 | NNE | 0 | 0.00 |
| 45 | 08/26 | 04:00 | 62 | 60 | 94 | 30.17 | NNE | 0 | 0.00 |
| 46 | 08/26 | 03:00 | 63 | 60 | 93 | 30.18 | NW | 0 | 0.00 |
| 47 | 08/26 | 02:00 | 64 | 62 | 94 | 30.19 | WNW | 2 | 0.00 |
| 48 | 08/26 | 01:00 | 65 | 62 | 91 | 30.20 | WSW | 0 | 0.00 |
| 49 | 08/26 | 00:00 | 66 | 62 | 89 | 30.19 | WSW | 0 | 0.00 |
| 50 | 08/25 | 23:00 | 67 | 62 | 87 | 30.19 | WSW | 0 | 0.00 |
| 51 | 08/25 | 22:00 | 69 | 63 | 84 | 30.19 | SSE | 0 | 0.00 |
| 52 | 08/25 | 21:00 | 71 | 64 | 81 | 30.18 | S | 1 | 0.00 |
| 53 | 08/25 | 20:00 | 75 | 61 | 62 | 30.18 | SSW | 4 | 0.00 |
| 54 | 08/25 | 19:00 | 78 | 60 | 56 | 30.17 | SSW | 2 | 0.00 |
| 55 | 08/25 | 18:00 | 79 | 59 | 51 | 30.17 | S | 4 | 0.00 |
| 56 | 08/25 | 17:00 | 82 | 57 | 44 | 30.18 | S | 5 | 0.00 |
| 57 | 08/25 | 16:00 | 85 | 58 | 41 | 30.18 | NNW | 3 | 0.00 |
| 58 | 08/25 | 15:00 | 83 | 55 | 40 | 30.21 | NNE | 5 | 0.00 |
| 59 | 08/25 | 14:00 | 82 | 55 | 40 | 30.23 | W | 5 | 0.00 |
| 60 | 08/25 | 13:00 | 81 | 56 | 44 | 30.26 | NNE | 3 | 0.00 |
| 61 | 08/25 | 12:00 | 79 | 58 | 50 | 30.26 | NNW | 4 | 0.00 |
| 62 | 08/25 | 11:00 | 77 | 60 | 57 | 30.28 | NE | 6 | 0.00 |
| 63 | 08/25 | 10:00 | 72 | 60 | 68 | 30.29 | ENE | 1 | 0.00 |
| 64 | 08/25 | 09:00 | 63 | 62 | 99 | 30.29 | SE | 0 | 0.00 |
| 65 | 08/25 | 08:00 | 58 | 58 | 100 | 30.28 | ESE | 0 | 0.00 |
| 66 | 08/25 | 07:00 | 53 | 53 | 100 | 30.28 | ESE | 0 | 0.00 |
| 67 | 08/25 | 06:00 | 54 | 53 | 99 | 30.26 | SE | 0 | 0.00 |
| 68 | 08/25 | 05:00 | 56 | 55 | 98 | 30.25 | SE | 0 | 0.00 |
| 69 | 08/25 | 04:00 | 56 | 55 | 97 | 30.23 | SE | 0 | 0.00 |
| 70 | 08/25 | 03:00 | 57 | 55 | 95 | 30.23 | SE | 0 | 0.00 |
| 71 | 08/25 | 02:00 | 58 | 55 | 93 | 30.23 | SE | 0 | 0.00 |
| 72 | 08/25 | 01:00 | 60 | 57 | 90 | 30.24 | SE | 0 | 0.00 |
| 73 | 08/25 | 00:00 | 61 | 56 | 86 | 30.23 | SE | 0 | 0.00 |